Khashm El Girba Airport


Codes: HSKG/GBU
Name: Khashm El Girba Airport
City: Khashm El Girba
Country: Sudan
Elevation: 1560 ft.

Photos at Khashm El Girba Airport


   Photos courtesy of SpottingLog. You can add your own sightings and photos by signing up for a free trial today.



No photos found.

Weather at Khashm El Girba Airport


Time (UTC)DescriptionTempratureWindCloud coverageVisibilityPressureHumidity
21-Feb-2024 03:00Clear Sky22°C11 mph, N1%10000m1009hPa49%
21-Feb-2024 06:00Clear Sky23°C13 mph, N4%10000m1010hPa52%
21-Feb-2024 09:00Clear Sky30°C16 mph, N2%10000m1010hPa34%
21-Feb-2024 12:00Clear Sky35°C16 mph, N1%10000m1007hPa24%
21-Feb-2024 15:00Clear Sky34°C16 mph, N6%10000m1007hPa21%
21-Feb-2024 18:00Scattered Clouds30°C18 mph, N25%10000m1009hPa28%
21-Feb-2024 21:00Broken Clouds26°C13 mph, N74%10000m1009hPa42%
22-Feb-2024 00:00Broken Clouds24°C11 mph, NE53%10000m1008hPa55%
22-Feb-2024 03:00Scattered Clouds21°C9 mph, N35%10000m1009hPa71%
22-Feb-2024 06:00Scattered Clouds24°C13 mph, NE28%10000m1010hPa63%
22-Feb-2024 09:00Scattered Clouds33°C13 mph, N43%10000m1008hPa33%
22-Feb-2024 12:00Scattered Clouds37°C16 mph, N32%10000m1004hPa21%
22-Feb-2024 15:00Scattered Clouds36°C18 mph, N46%10000m1004hPa22%
22-Feb-2024 18:00Broken Clouds30°C18 mph, N71%10000m1006hPa41%
22-Feb-2024 21:00Overcast Clouds27°C13 mph, N100%10000m1007hPa59%
23-Feb-2024 00:00Overcast Clouds25°C13 mph, NE100%10000m1006hPa65%
23-Feb-2024 03:00Overcast Clouds24°C11 mph, N100%10000m1006hPa72%
23-Feb-2024 06:00Overcast Clouds26°C13 mph, NE100%10000m1008hPa58%
23-Feb-2024 09:00Overcast Clouds34°C4 mph, NE99%10000m1007hPa27%
23-Feb-2024 12:00Overcast Clouds38°C2 mph, W98%10000m1003hPa19%
23-Feb-2024 15:00Overcast Clouds38°C7 mph, NW85%10000m1004hPa19%
23-Feb-2024 18:00Broken Clouds35°C11 mph, NW64%10000m1006hPa24%
23-Feb-2024 21:00Broken Clouds28°C18 mph, N80%10000m1007hPa52%
24-Feb-2024 00:00Broken Clouds27°C13 mph, N78%10000m1007hPa54%
24-Feb-2024 03:00Broken Clouds25°C11 mph, N77%10000m1008hPa61%
24-Feb-2024 06:00Overcast Clouds26°C13 mph, N88%10000m1011hPa58%
24-Feb-2024 09:00Overcast Clouds33°C13 mph, N100%10000m1009hPa34%
24-Feb-2024 12:00Overcast Clouds37°C13 mph, N100%10000m1006hPa25%
24-Feb-2024 15:00Overcast Clouds36°C11 mph, N100%10000m1006hPa23%
24-Feb-2024 18:00Overcast Clouds33°C11 mph, N100%10000m1008hPa30%
24-Feb-2024 21:00Overcast Clouds29°C13 mph, N100%10000m1009hPa44%
25-Feb-2024 00:00Overcast Clouds27°C13 mph, NE100%10000m1008hPa53%
25-Feb-2024 03:00Overcast Clouds25°C11 mph, N95%10000m1009hPa63%
25-Feb-2024 06:00Overcast Clouds27°C11 mph, NE96%10000m1010hPa56%
25-Feb-2024 09:00Broken Clouds34°C16 mph, N52%10000m1008hPa30%
25-Feb-2024 12:00Scattered Clouds38°C16 mph, N35%10000m1005hPa20%
25-Feb-2024 15:00Scattered Clouds37°C18 mph, N38%10000m1005hPa18%
25-Feb-2024 18:00Broken Clouds33°C13 mph, N63%10000m1007hPa26%
25-Feb-2024 21:00Overcast Clouds29°C16 mph, N99%10000m1008hPa40%
26-Feb-2024 00:00Overcast Clouds26°C13 mph, N96%10000m1007hPa46%